sensor_id;sensor_type;location;lat;lon;timestamp;pressure;altitude;pressure_sealevel;temperature;humidity
58668;BME280;59852;43.086;25.634;2022-08-01T05:34:20;98379.63;;;23.27;39.56
58668;BME280;59852;43.086;25.634;2022-08-01T05:36:46;98384.81;;;23.48;39.84
58668;BME280;59852;43.086;25.634;2022-08-01T05:39:12;98375.50;;;23.72;38.43
58668;BME280;59852;43.086;25.634;2022-08-01T05:41:37;98383.91;;;23.76;38.30
58668;BME280;59852;43.086;25.634;2022-08-01T05:44:03;98376.13;;;23.94;37.55
58668;BME280;59852;43.086;25.634;2022-08-01T05:46:29;98384.56;;;23.98;37.07
58668;BME280;59852;43.086;25.634;2022-08-01T05:48:56;98388.66;;;23.81;37.28
58668;BME280;59852;43.086;25.634;2022-08-01T05:51:21;98389.88;;;23.71;37.27
58668;BME280;59852;43.086;25.634;2022-08-01T05:53:46;98389.69;;;23.93;37.04
58668;BME280;59852;43.086;25.634;2022-08-01T05:56:12;98384.53;;;23.78;36.50
58668;BME280;59852;43.086;25.634;2022-08-01T05:58:37;98384.94;;;23.75;36.32
58668;BME280;59852;43.086;25.634;2022-08-01T06:01:03;98385.59;;;23.90;36.49
58668;BME280;59852;43.086;25.634;2022-08-01T06:03:28;98385.78;;;23.82;36.51
58668;BME280;59852;43.086;25.634;2022-08-01T06:05:56;98390.31;;;24.28;35.75
58668;BME280;59852;43.086;25.634;2022-08-01T06:08:22;98379.41;;;23.83;35.76
58668;BME280;59852;43.086;25.634;2022-08-01T06:10:47;98384.16;;;24.14;36.47
58668;BME280;59852;43.086;25.634;2022-08-01T06:13:13;98371.84;;;24.46;36.79
58668;BME280;59852;43.086;25.634;2022-08-01T06:15:38;98359.91;;;24.55;35.66
58668;BME280;59852;43.086;25.634;2022-08-01T06:18:03;98380.66;;;24.27;35.19
58668;BME280;59852;43.086;25.634;2022-08-01T06:20:30;98371.44;;;24.43;36.64
58668;BME280;59852;43.086;25.634;2022-08-01T06:22:55;98382.75;;;24.38;35.71
58668;BME280;59852;43.086;25.634;2022-08-01T06:25:20;98379.25;;;24.38;35.59
58668;BME280;59852;43.086;25.634;2022-08-01T06:27:46;98374.72;;;24.25;35.20
58668;BME280;59852;43.086;25.634;2022-08-01T06:30:11;98386.63;;;24.22;36.05
58668;BME280;59852;43.086;25.634;2022-08-01T06:32:37;98374.53;;;24.33;35.83
58668;BME280;59852;43.086;25.634;2022-08-01T06:35:02;98378.84;;;24.60;35.74
58668;BME280;59852;43.086;25.634;2022-08-01T06:37:31;98368.31;;;24.72;35.32
58668;BME280;59852;43.086;25.634;2022-08-01T06:40:01;98363.19;;;24.71;35.55
58668;BME280;59852;43.086;25.634;2022-08-01T06:42:26;98362.19;;;24.52;35.48
58668;BME280;59852;43.086;25.634;2022-08-01T06:44:51;98363.84;;;24.59;35.68
58668;BME280;59852;43.086;25.634;2022-08-01T06:47:17;98355.59;;;24.61;35.38
58668;BME280;59852;43.086;25.634;2022-08-01T06:49:42;98372.03;;;24.65;35.38
58668;BME280;59852;43.086;25.634;2022-08-01T06:52:07;98360.09;;;24.80;35.11
58668;BME280;59852;43.086;25.634;2022-08-01T06:54:33;98369.56;;;24.70;35.12
58668;BME280;59852;43.086;25.634;2022-08-01T06:56:58;98365.59;;;25.05;35.13
58668;BME280;59852;43.086;25.634;2022-08-01T06:59:23;98366.00;;;25.09;34.73
58668;BME280;59852;43.086;25.634;2022-08-01T07:01:49;98356.38;;;24.75;35.01
58668;BME280;59852;43.086;25.634;2022-08-01T07:04:14;98366.81;;;25.09;35.09
58668;BME280;59852;43.086;25.634;2022-08-01T07:06:40;98365.00;;;24.90;34.93
58668;BME280;59852;43.086;25.634;2022-08-01T07:09:05;98361.06;;;24.93;35.17
58668;BME280;59852;43.086;25.634;2022-08-01T07:11:30;98365.94;;;25.15;35.06
58668;BME280;59852;43.086;25.634;2022-08-01T07:13:56;98350.53;;;25.17;35.45
58668;BME280;59852;43.086;25.634;2022-08-01T07:16:22;98358.38;;;24.99;35.02
58668;BME280;59852;43.086;25.634;2022-08-01T07:18:47;98364.53;;;25.06;35.10
58668;BME280;59852;43.086;25.634;2022-08-01T07:21:13;98360.94;;;25.32;35.06
58668;BME280;59852;43.086;25.634;2022-08-01T07:23:38;98354.94;;;25.82;35.50
58668;BME280;59852;43.086;25.634;2022-08-01T07:26:03;98364.09;;;25.61;35.00
58668;BME280;59852;43.086;25.634;2022-08-01T07:28:29;98356.56;;;25.44;34.55
58668;BME280;59852;43.086;25.634;2022-08-01T07:30:54;98359.66;;;25.41;35.00
58668;BME280;59852;43.086;25.634;2022-08-01T07:33:20;98363.41;;;25.34;34.60
58668;BME280;59852;43.086;25.634;2022-08-01T07:35:45;98359.66;;;25.48;34.82
58668;BME280;59852;43.086;25.634;2022-08-01T07:38:10;98349.69;;;25.55;34.51
58668;BME280;59852;43.086;25.634;2022-08-01T07:40:36;98351.56;;;25.55;34.28
58668;BME280;59852;43.086;25.634;2022-08-01T07:43:01;98350.41;;;25.82;34.19
58668;BME280;59852;43.086;25.634;2022-08-01T07:45:27;98369.50;;;25.92;34.63
58668;BME280;59852;43.086;25.634;2022-08-01T07:47:52;98368.63;;;25.67;34.71
58668;BME280;59852;43.086;25.634;2022-08-01T07:50:18;98368.06;;;25.90;33.62
58668;BME280;59852;43.086;25.634;2022-08-01T07:52:43;98365.03;;;25.86;33.39
58668;BME280;59852;43.086;25.634;2022-08-01T07:55:09;98360.19;;;25.95;33.62
58668;BME280;59852;43.086;25.634;2022-08-01T07:57:35;98364.91;;;25.99;34.02
58668;BME280;59852;43.086;25.634;2022-08-01T08:00:01;98358.16;;;25.52;34.23
58668;BME280;59852;43.086;25.634;2022-08-01T08:02:26;98370.97;;;25.88;33.89
58668;BME280;59852;43.086;25.634;2022-08-01T08:04:51;98364.81;;;25.88;33.71
58668;BME280;59852;43.086;25.634;2022-08-01T08:07:17;98357.50;;;25.95;33.49
58668;BME280;59852;43.086;25.634;2022-08-01T08:09:42;98367.09;;;26.34;33.73
58668;BME280;59852;43.086;25.634;2022-08-01T08:12:07;98372.91;;;26.31;33.29
58668;BME280;59852;43.086;25.634;2022-08-01T08:14:33;98371.03;;;26.38;33.56
58668;BME280;59852;43.086;25.634;2022-08-01T08:16:58;98355.56;;;26.58;33.31
58668;BME280;59852;43.086;25.634;2022-08-01T08:19:24;98370.41;;;26.61;33.25
58668;BME280;59852;43.086;25.634;2022-08-01T08:21:49;98360.06;;;26.65;33.05
58668;BME280;59852;43.086;25.634;2022-08-01T08:24:14;98354.91;;;26.63;33.16
58668;BME280;59852;43.086;25.634;2022-08-01T08:26:47;98356.13;;;26.85;33.04
58668;BME280;59852;43.086;25.634;2022-08-01T08:29:12;98356.84;;;26.93;33.11
58668;BME280;59852;43.086;25.634;2022-08-01T08:31:38;98355.56;;;26.34;32.93
58668;BME280;59852;43.086;25.634;2022-08-01T08:34:03;98352.56;;;26.48;32.96
58668;BME280;59852;43.086;25.634;2022-08-01T08:36:29;98352.72;;;26.53;33.13
58668;BME280;59852;43.086;25.634;2022-08-01T08:38:54;98364.19;;;26.85;32.79
58668;BME280;59852;43.086;25.634;2022-08-01T08:41:20;98360.22;;;26.45;32.89
58668;BME280;59852;43.086;25.634;2022-08-01T08:43:45;98363.41;;;26.78;33.08
58668;BME280;59852;43.086;25.634;2022-08-01T08:46:10;98358.94;;;26.91;33.12
58668;BME280;59852;43.086;25.634;2022-08-01T08:48:36;98362.06;;;26.69;33.18
58668;BME280;59852;43.086;25.634;2022-08-01T08:51:02;98356.94;;;26.68;33.49
58668;BME280;59852;43.086;25.634;2022-08-01T08:53:28;98359.09;;;26.77;33.06
58668;BME280;59852;43.086;25.634;2022-08-01T08:55:54;98352.25;;;27.00;33.57
58668;BME280;59852;43.086;25.634;2022-08-01T08:58:21;98360.50;;;26.98;32.95
58668;BME280;59852;43.086;25.634;2022-08-01T09:00:47;98350.59;;;27.35;32.34
58668;BME280;59852;43.086;25.634;2022-08-01T09:03:13;98358.97;;;27.09;32.84
58668;BME280;59852;43.086;25.634;2022-08-01T09:05:38;98373.50;;;27.20;32.80
58668;BME280;59852;43.086;25.634;2022-08-01T09:08:07;98351.19;;;27.01;33.10
58668;BME280;59852;43.086;25.634;2022-08-01T09:10:33;98365.25;;;27.51;32.59
58668;BME280;59852;43.086;25.634;2022-08-01T09:13:16;98367.97;;;27.33;32.46
58668;BME280;59852;43.086;25.634;2022-08-01T09:18:08;98355.94;;;27.54;32.26
58668;BME280;59852;43.086;25.634;2022-08-01T09:20:33;98344.03;;;27.31;32.63
58668;BME280;59852;43.086;25.634;2022-08-01T09:23:02;98350.69;;;27.29;32.38
58668;BME280;59852;43.086;25.634;2022-08-01T09:25:30;98346.59;;;27.56;31.94
58668;BME280;59852;43.086;25.634;2022-08-01T09:28:02;98346.69;;;27.50;32.50
58668;BME280;59852;43.086;25.634;2022-08-01T09:30:28;98346.00;;;27.54;33.35
58668;BME280;59852;43.086;25.634;2022-08-01T09:33:02;98344.41;;;27.95;31.58
58668;BME280;59852;43.086;25.634;2022-08-01T09:35:34;98335.47;;;27.53;31.56
58668;BME280;59852;43.086;25.634;2022-08-01T09:38:11;98359.00;;;27.87;31.73
58668;BME280;59852;43.086;25.634;2022-08-01T09:40:48;98344.19;;;27.36;31.62
58668;BME280;59852;43.086;25.634;2022-08-01T09:43:14;98347.59;;;28.15;31.17
58668;BME280;59852;43.086;25.634;2022-08-01T09:45:39;98345.19;;;27.84;31.66
58668;BME280;59852;43.086;25.634;2022-08-01T09:48:05;98344.84;;;27.62;31.71
58668;BME280;59852;43.086;25.634;2022-08-01T09:50:38;98344.50;;;27.58;32.24
58668;BME280;59852;43.086;25.634;2022-08-01T09:53:03;98347.34;;;27.93;31.61
58668;BME280;59852;43.086;25.634;2022-08-01T09:55:29;98350.78;;;27.52;32.04
58668;BME280;59852;43.086;25.634;2022-08-01T09:57:55;98347.41;;;28.40;31.60
58668;BME280;59852;43.086;25.634;2022-08-01T10:00:20;98348.66;;;28.14;31.30
58668;BME280;59852;43.086;25.634;2022-08-01T10:02:46;98349.38;;;27.80;31.48
58668;BME280;59852;43.086;25.634;2022-08-01T10:05:11;98348.03;;;28.00;32.22
58668;BME280;59852;43.086;25.634;2022-08-01T10:10:19;98352.63;;;27.70;31.58
58668;BME280;59852;43.086;25.634;2022-08-01T10:12:45;98352.72;;;27.93;31.40
58668;BME280;59852;43.086;25.634;2022-08-01T10:15:10;98358.97;;;28.41;32.05
58668;BME280;59852;43.086;25.634;2022-08-01T10:17:37;98341.50;;;28.20;31.69
58668;BME280;59852;43.086;25.634;2022-08-01T10:20:03;98348.16;;;27.94;31.15
58668;BME280;59852;43.086;25.634;2022-08-01T10:22:30;98350.16;;;27.68;31.74
58668;BME280;59852;43.086;25.634;2022-08-01T10:24:56;98347.88;;;27.84;30.85
58668;BME280;59852;43.086;25.634;2022-08-01T10:27:24;98334.50;;;27.65;31.03
58668;BME280;59852;43.086;25.634;2022-08-01T10:29:51;98343.19;;;27.79;31.25
58668;BME280;59852;43.086;25.634;2022-08-01T10:32:20;98344.84;;;27.62;31.39
58668;BME280;59852;43.086;25.634;2022-08-01T10:34:45;98346.88;;;28.08;30.40
58668;BME280;59852;43.086;25.634;2022-08-01T10:37:11;98339.38;;;27.98;30.73
58668;BME280;59852;43.086;25.634;2022-08-01T10:39:37;98337.19;;;28.19;30.10
58668;BME280;59852;43.086;25.634;2022-08-01T10:42:04;98348.44;;;28.39;30.75
58668;BME280;59852;43.086;25.634;2022-08-01T10:44:31;98346.88;;;28.20;30.14
58668;BME280;59852;43.086;25.634;2022-08-01T10:47:09;98330.09;;;28.71;30.18
58668;BME280;59852;43.086;25.634;2022-08-01T10:49:36;98341.88;;;28.23;30.80
58668;BME280;59852;43.086;25.634;2022-08-01T10:52:04;98337.19;;;28.19;30.82
58668;BME280;59852;43.086;25.634;2022-08-01T10:54:29;98333.13;;;28.40;30.47
58668;BME280;59852;43.086;25.634;2022-08-01T10:57:02;98336.88;;;28.74;29.97
58668;BME280;59852;43.086;25.634;2022-08-01T10:59:30;98332.88;;;28.76;30.55
58668;BME280;59852;43.086;25.634;2022-08-01T11:01:57;98334.06;;;29.32;30.64
58668;BME280;59852;43.086;25.634;2022-08-01T11:04:31;98347.16;;;28.30;30.59
58668;BME280;59852;43.086;25.634;2022-08-01T11:07:04;98346.03;;;27.84;31.41
58668;BME280;59852;43.086;25.634;2022-08-01T11:09:40;98345.38;;;27.70;32.17
58668;BME280;59852;43.086;25.634;2022-08-01T11:14:34;98329.72;;;28.68;30.73
58668;BME280;59852;43.086;25.634;2022-08-01T11:20:03;98327.41;;;28.48;30.89
58668;BME280;59852;43.086;25.634;2022-08-01T11:22:29;98325.94;;;29.04;30.26
58668;BME280;59852;43.086;25.634;2022-08-01T11:24:54;98331.47;;;28.85;30.37
58668;BME280;59852;43.086;25.634;2022-08-01T11:27:31;98326.91;;;28.74;30.47
58668;BME280;59852;43.086;25.634;2022-08-01T11:32:34;98313.09;;;28.71;31.03
58668;BME280;59852;43.086;25.634;2022-08-01T11:35:10;98325.41;;;29.30;30.55
58668;BME280;59852;43.086;25.634;2022-08-01T11:37:35;98305.25;;;28.69;29.86
58668;BME280;59852;43.086;25.634;2022-08-01T11:42:41;98307.25;;;29.26;29.60
58668;BME280;59852;43.086;25.634;2022-08-01T11:45:07;98300.91;;;29.32;29.90
58668;BME280;59852;43.086;25.634;2022-08-01T11:52:57;98308.41;;;28.19;31.74
58668;BME280;59852;43.086;25.634;2022-08-01T11:55:22;98294.38;;;28.76;30.00
58668;BME280;59852;43.086;25.634;2022-08-01T11:57:48;98290.03;;;28.86;29.89
58668;BME280;59852;43.086;25.634;2022-08-01T12:00:17;98307.00;;;28.87;29.52
58668;BME280;59852;43.086;25.634;2022-08-01T12:02:44;98290.81;;;28.35;30.80
58668;BME280;59852;43.086;25.634;2022-08-01T12:05:11;98292.88;;;28.92;29.97
58668;BME280;59852;43.086;25.634;2022-08-01T12:07:37;98290.81;;;29.10;30.25
58668;BME280;59852;43.086;25.634;2022-08-01T12:12:28;98294.84;;;28.84;30.56
58668;BME280;59852;43.086;25.634;2022-08-01T12:14:55;98297.84;;;29.11;30.17
58668;BME280;59852;43.086;25.634;2022-08-01T12:17:55;98292.91;;;29.08;30.77
58668;BME280;59852;43.086;25.634;2022-08-01T12:20:14;98287.56;;;28.85;31.52
58668;BME280;59852;43.086;25.634;2022-08-01T12:22:40;98290.31;;;28.15;31.80
58668;BME280;59852;43.086;25.634;2022-08-01T12:27:32;98290.25;;;28.85;31.47
58668;BME280;59852;43.086;25.634;2022-08-01T12:29:58;98282.00;;;29.43;30.55
58668;BME280;59852;43.086;25.634;2022-08-01T12:34:52;98288.66;;;29.53;32.68
58668;BME280;59852;43.086;25.634;2022-08-01T12:37:18;98281.28;;;29.48;31.13
58668;BME280;59852;43.086;25.634;2022-08-01T12:39:43;98269.09;;;28.89;32.54
58668;BME280;59852;43.086;25.634;2022-08-01T12:42:09;98273.13;;;28.16;32.35
58668;BME280;59852;43.086;25.634;2022-08-01T12:44:35;98272.59;;;28.77;31.93
58668;BME280;59852;43.086;25.634;2022-08-01T12:47:01;98278.38;;;29.09;31.32
58668;BME280;59852;43.086;25.634;2022-08-01T12:49:26;98275.09;;;28.67;32.38
58668;BME280;59852;43.086;25.634;2022-08-01T12:51:52;98274.22;;;28.90;31.78
58668;BME280;59852;43.086;25.634;2022-08-01T12:54:18;98271.97;;;29.10;31.85
58668;BME280;59852;43.086;25.634;2022-08-01T12:56:44;98265.25;;;29.41;31.89
58668;BME280;59852;43.086;25.634;2022-08-01T12:59:23;98268.28;;;28.76;32.11
58668;BME280;59852;43.086;25.634;2022-08-01T13:01:53;98270.63;;;28.73;32.04
58668;BME280;59852;43.086;25.634;2022-08-01T13:04:19;98271.31;;;29.20;31.65
58668;BME280;59852;43.086;25.634;2022-08-01T13:06:44;98263.09;;;28.98;32.68
58668;BME280;59852;43.086;25.634;2022-08-01T13:09:10;98262.09;;;28.76;33.30
58668;BME280;59852;43.086;25.634;2022-08-01T13:11:38;98268.28;;;28.76;33.11
58668;BME280;59852;43.086;25.634;2022-08-01T13:14:03;98263.78;;;28.53;33.59
58668;BME280;59852;43.086;25.634;2022-08-01T13:16:28;98269.63;;;28.62;33.40
58668;BME280;59852;43.086;25.634;2022-08-01T13:18:55;98271.88;;;28.42;33.69
58668;BME280;59852;43.086;25.634;2022-08-01T13:21:24;98264.31;;;28.67;33.33
58668;BME280;59852;43.086;25.634;2022-08-01T13:24:03;98264.91;;;29.21;32.42
58668;BME280;59852;43.086;25.634;2022-08-01T13:29:10;98265.47;;;29.23;33.28
58668;BME280;59852;43.086;25.634;2022-08-01T13:31:35;98259.44;;;29.04;33.12
58668;BME280;59852;43.086;25.634;2022-08-01T13:34:02;98254.94;;;28.81;32.62
58668;BME280;59852;43.086;25.634;2022-08-01T13:36:27;98257.97;;;28.85;32.92
58668;BME280;59852;43.086;25.634;2022-08-01T13:38:53;98267.66;;;28.34;33.77
58668;BME280;59852;43.086;25.634;2022-08-01T13:41:38;98269.97;;;28.31;33.88
58668;BME280;59852;43.086;25.634;2022-08-01T13:44:03;98269.84;;;28.25;33.84
58668;BME280;59852;43.086;25.634;2022-08-01T13:46:28;98270.13;;;27.70;34.71
58668;BME280;59852;43.086;25.634;2022-08-01T13:48:54;98267.97;;;28.03;34.34
58668;BME280;59852;43.086;25.634;2022-08-01T13:51:19;98274.41;;;28.25;34.58
58668;BME280;59852;43.086;25.634;2022-08-01T13:53:44;98275.47;;;28.24;34.69
58668;BME280;59852;43.086;25.634;2022-08-01T13:56:10;98261.69;;;28.32;33.54
58668;BME280;59852;43.086;25.634;2022-08-01T13:58:36;98272.41;;;28.55;33.44
58668;BME280;59852;43.086;25.634;2022-08-01T14:01:01;98271.38;;;28.45;34.44
58668;BME280;59852;43.086;25.634;2022-08-01T14:03:26;98264.56;;;28.19;33.98
58668;BME280;59852;43.086;25.634;2022-08-01T14:05:52;98271.94;;;28.12;34.33
58668;BME280;59852;43.086;25.634;2022-08-01T14:08:17;98264.00;;;28.05;34.18
58668;BME280;59852;43.086;25.634;2022-08-01T14:10:43;98277.41;;;27.82;34.48
58668;BME280;59852;43.086;25.634;2022-08-01T14:13:08;98281.28;;;27.97;35.53
58668;BME280;59852;43.086;25.634;2022-08-01T14:15:33;98265.75;;;27.99;34.64
58668;BME280;59852;43.086;25.634;2022-08-01T14:17:59;98267.13;;;27.90;36.51
58668;BME280;59852;43.086;25.634;2022-08-01T14:20:25;98269.47;;;27.87;35.41
58668;BME280;59852;43.086;25.634;2022-08-01T14:22:50;98266.56;;;27.88;34.98
58668;BME280;59852;43.086;25.634;2022-08-01T14:25:15;98249.50;;;27.94;34.07
58668;BME280;59852;43.086;25.634;2022-08-01T14:27:43;98253.97;;;28.12;34.62
58668;BME280;59852;43.086;25.634;2022-08-01T14:30:08;98262.59;;;28.03;34.58
58668;BME280;59852;43.086;25.634;2022-08-01T14:32:34;98261.19;;;27.88;34.13
58668;BME280;59852;43.086;25.634;2022-08-01T14:35:00;98265.72;;;27.88;34.30
58668;BME280;59852;43.086;25.634;2022-08-01T14:37:26;98264.09;;;27.87;34.28
58668;BME280;59852;43.086;25.634;2022-08-01T14:39:53;98269.31;;;27.70;35.08
58668;BME280;59852;43.086;25.634;2022-08-01T14:42:18;98267.47;;;27.82;34.17
58668;BME280;59852;43.086;25.634;2022-08-01T14:44:44;98269.81;;;27.90;34.40
58668;BME280;59852;43.086;25.634;2022-08-01T14:47:09;98269.72;;;27.97;33.92
58668;BME280;59852;43.086;25.634;2022-08-01T14:49:34;98267.50;;;28.06;34.18
58668;BME280;59852;43.086;25.634;2022-08-01T14:52:00;98267.97;;;28.03;33.70
58668;BME280;59852;43.086;25.634;2022-08-01T14:54:25;98269.56;;;27.80;34.16
58668;BME280;59852;43.086;25.634;2022-08-01T14:56:50;98276.09;;;27.72;34.07
58668;BME280;59852;43.086;25.634;2022-08-01T14:59:17;98276.94;;;27.73;34.68
58668;BME280;59852;43.086;25.634;2022-08-01T15:01:43;98275.47;;;27.59;34.57
58668;BME280;59852;43.086;25.634;2022-08-01T15:04:08;98284.81;;;27.56;33.95
58668;BME280;59852;43.086;25.634;2022-08-01T15:06:33;98276.22;;;27.66;34.56
58668;BME280;59852;43.086;25.634;2022-08-01T15:08:59;98271.88;;;27.65;34.09
58668;BME280;59852;43.086;25.634;2022-08-01T15:11:24;98274.66;;;27.58;34.79
58668;BME280;59852;43.086;25.634;2022-08-01T15:13:49;98272.09;;;27.63;34.81
58668;BME280;59852;43.086;25.634;2022-08-01T15:16:35;98278.72;;;27.61;34.20
58668;BME280;59852;43.086;25.634;2022-08-01T15:19:00;98285.31;;;27.65;34.25
58668;BME280;59852;43.086;25.634;2022-08-01T15:21:26;98273.53;;;27.66;34.73
58668;BME280;59852;43.086;25.634;2022-08-01T15:23:51;98269.47;;;27.75;33.87
58668;BME280;59852;43.086;25.634;2022-08-01T15:26:16;98271.59;;;27.85;33.79
58668;BME280;59852;43.086;25.634;2022-08-01T15:28:41;98267.94;;;27.79;34.45
58668;BME280;59852;43.086;25.634;2022-08-01T15:31:07;98269.81;;;27.79;34.25
58668;BME280;59852;43.086;25.634;2022-08-01T15:33:32;98270.28;;;27.76;34.17
58668;BME280;59852;43.086;25.634;2022-08-01T15:35:58;98267.22;;;27.72;34.53
58668;BME280;59852;43.086;25.634;2022-08-01T15:38:23;98267.09;;;27.67;33.61
58668;BME280;59852;43.086;25.634;2022-08-01T15:40:48;98276.00;;;27.67;34.02
58668;BME280;59852;43.086;25.634;2022-08-01T15:43:14;98263.56;;;27.55;35.95
58668;BME280;59852;43.086;25.634;2022-08-01T15:45:39;98262.72;;;27.54;35.11
58668;BME280;59852;43.086;25.634;2022-08-01T15:48:04;98268.47;;;27.58;34.27
58668;BME280;59852;43.086;25.634;2022-08-01T15:50:30;98280.22;;;27.45;35.21
58668;BME280;59852;43.086;25.634;2022-08-01T15:52:55;98269.25;;;27.47;37.58
58668;BME280;59852;43.086;25.634;2022-08-01T15:55:20;98269.47;;;27.45;34.34
58668;BME280;59852;43.086;25.634;2022-08-01T15:57:46;98275.91;;;27.44;37.28
58668;BME280;59852;43.086;25.634;2022-08-01T16:00:11;98272.41;;;27.43;34.40
58668;BME280;59852;43.086;25.634;2022-08-01T16:02:37;98271.69;;;27.48;34.62
58668;BME280;59852;43.086;25.634;2022-08-01T16:05:02;98282.22;;;27.50;35.41
58668;BME280;59852;43.086;25.634;2022-08-01T16:07:28;98282.28;;;27.43;36.06
58668;BME280;59852;43.086;25.634;2022-08-01T16:09:53;98280.47;;;27.43;35.09
58668;BME280;59852;43.086;25.634;2022-08-01T16:12:18;98278.44;;;27.39;33.77
58668;BME280;59852;43.086;25.634;2022-08-01T16:14:44;98276.34;;;27.41;34.24
58668;BME280;59852;43.086;25.634;2022-08-01T16:17:09;98271.09;;;27.34;35.60
58668;BME280;59852;43.086;25.634;2022-08-01T16:19:35;98279.22;;;27.28;34.18
58668;BME280;59852;43.086;25.634;2022-08-01T16:22:00;98281.31;;;27.26;33.87
58668;BME280;59852;43.086;25.634;2022-08-01T16:24:25;98294.16;;;27.24;34.43
58668;BME280;59852;43.086;25.634;2022-08-01T16:26:54;98279.84;;;27.11;34.69
58668;BME280;59852;43.086;25.634;2022-08-01T16:29:19;98284.91;;;27.20;35.00
58668;BME280;59852;43.086;25.634;2022-08-01T16:31:44;98294.72;;;27.14;34.92
58668;BME280;59852;43.086;25.634;2022-08-01T16:34:10;98293.28;;;27.11;35.14
58668;BME280;59852;43.086;25.634;2022-08-01T16:36:35;98293.72;;;26.90;37.58
58668;BME280;59852;43.086;25.634;2022-08-01T16:39:00;98301.13;;;26.76;40.10
58668;BME280;59852;43.086;25.634;2022-08-01T16:41:26;98304.44;;;26.72;39.74
58668;BME280;59852;43.086;25.634;2022-08-01T16:43:51;98302.06;;;26.64;38.39
58668;BME280;59852;43.086;25.634;2022-08-01T16:46:16;98308.34;;;26.57;37.63
58668;BME280;59852;43.086;25.634;2022-08-01T16:48:42;98296.88;;;26.69;38.96
58668;BME280;59852;43.086;25.634;2022-08-01T16:51:08;98298.72;;;26.50;37.73
58668;BME280;59852;43.086;25.634;2022-08-01T16:53:33;98301.31;;;26.38;38.94
58668;BME280;59852;43.086;25.634;2022-08-01T16:55:59;98301.69;;;26.42;39.19
58668;BME280;59852;43.086;25.634;2022-08-01T16:58:24;98301.69;;;26.42;39.55
58668;BME280;59852;43.086;25.634;2022-08-01T17:00:50;98301.09;;;26.40;36.85
58668;BME280;59852;43.086;25.634;2022-08-01T17:03:17;98300.50;;;26.38;40.25
58668;BME280;59852;43.086;25.634;2022-08-01T17:05:42;98299.97;;;26.22;38.02
58668;BME280;59852;43.086;25.634;2022-08-01T17:08:08;98306.34;;;26.28;37.83
58668;BME280;59852;43.086;25.634;2022-08-01T17:10:34;98301.88;;;26.15;37.12
58668;BME280;59852;43.086;25.634;2022-08-01T17:13:00;98304.16;;;26.18;36.97
58668;BME280;59852;43.086;25.634;2022-08-01T17:15:26;98307.19;;;26.22;36.81
58668;BME280;59852;43.086;25.634;2022-08-01T17:17:53;98309.06;;;26.21;36.63
58668;BME280;59852;43.086;25.634;2022-08-01T17:20:19;98309.34;;;26.13;36.61
58668;BME280;59852;43.086;25.634;2022-08-01T17:22:44;98311.75;;;26.21;37.33
58668;BME280;59852;43.086;25.634;2022-08-01T17:25:10;98309.50;;;26.18;38.06
58668;BME280;59852;43.086;25.634;2022-08-01T17:27:35;98312.25;;;26.12;37.95
58668;BME280;59852;43.086;25.634;2022-08-01T17:30:01;98316.78;;;26.11;37.79
58668;BME280;59852;43.086;25.634;2022-08-01T17:32:26;98315.97;;;26.11;36.84
58668;BME280;59852;43.086;25.634;2022-08-01T17:34:52;98315.91;;;26.17;37.62
58668;BME280;59852;43.086;25.634;2022-08-01T17:37:17;98315.16;;;26.10;36.85
58668;BME280;59852;43.086;25.634;2022-08-01T17:39:42;98322.19;;;26.05;37.38
58668;BME280;59852;43.086;25.634;2022-08-01T17:42:08;98322.38;;;26.10;37.30
58668;BME280;59852;43.086;25.634;2022-08-01T17:44:35;98317.72;;;25.98;37.67
58668;BME280;59852;43.086;25.634;2022-08-01T17:47:00;98331.03;;;26.05;37.79
58668;BME280;59852;43.086;25.634;2022-08-01T17:49:27;98329.38;;;26.11;39.79
58668;BME280;59852;43.086;25.634;2022-08-01T17:51:52;98325.53;;;26.00;38.17
58668;BME280;59852;43.086;25.634;2022-08-01T17:54:18;98330.31;;;25.98;37.10
58668;BME280;59852;43.086;25.634;2022-08-01T17:56:43;98339.25;;;26.10;38.92
58668;BME280;59852;43.086;25.634;2022-08-01T17:59:08;98332.53;;;26.01;38.70
58668;BME280;59852;43.086;25.634;2022-08-01T18:01:34;98337.75;;;25.96;38.92
58668;BME280;59852;43.086;25.634;2022-08-01T18:04:00;98346.16;;;25.99;38.12
58668;BME280;59852;43.086;25.634;2022-08-01T18:06:25;98339.41;;;25.90;38.39
58668;BME280;59852;43.086;25.634;2022-08-01T18:08:50;98357.63;;;25.82;37.83
58668;BME280;59852;43.086;25.634;2022-08-01T18:11:16;98357.47;;;25.77;38.40
58668;BME280;59852;43.086;25.634;2022-08-01T18:13:42;98357.47;;;25.77;39.14
58668;BME280;59852;43.086;25.634;2022-08-01T18:16:08;98364.84;;;25.81;38.46
58668;BME280;59852;43.086;25.634;2022-08-01T18:18:35;98371.44;;;25.79;38.69
58668;BME280;59852;43.086;25.634;2022-08-01T18:21:01;98374.38;;;25.70;37.59
58668;BME280;59852;43.086;25.634;2022-08-01T18:23:26;98375.50;;;25.88;38.68
58668;BME280;59852;43.086;25.634;2022-08-01T18:25:51;98376.56;;;25.87;38.44
58668;BME280;59852;43.086;25.634;2022-08-01T18:28:17;98379.16;;;25.93;39.49
58668;BME280;59852;43.086;25.634;2022-08-01T18:30:43;98384.19;;;25.83;38.11
58668;BME280;59852;43.086;25.634;2022-08-01T18:33:08;98382.31;;;25.84;37.69
58668;BME280;59852;43.086;25.634;2022-08-01T18:35:33;98392.41;;;25.88;38.87
58668;BME280;59852;43.086;25.634;2022-08-01T18:37:59;98390.19;;;25.79;37.45
58668;BME280;59852;43.086;25.634;2022-08-01T18:40:24;98401.53;;;25.74;40.20
58668;BME280;59852;43.086;25.634;2022-08-01T18:42:49;98404.03;;;25.69;39.76
58668;BME280;59852;43.086;25.634;2022-08-01T18:45:15;98404.81;;;25.76;38.80
58668;BME280;59852;43.086;25.634;2022-08-01T18:47:41;98412.03;;;25.76;38.02
58668;BME280;59852;43.086;25.634;2022-08-01T18:50:07;98411.84;;;25.77;39.03